Timeline UpdatesTrip UpdatesNews PostsPvt PostsTravel TipsAdmin PostsConv PostsFollowed PostsChat RequestsBlog PostsPNR Posts

Disclaimer
Search
 
 
Thu Apr 17, 2014 16:32:55 ISTHomeTrainsΣChainsAtlasPNRForumGalleryNewsFAQTripsMembersLoginFeedback
No Recent News for this Train
Other Trains in the News **new
Latest...
.
Tue Jan 22, 2013 (09:18AM)
⇐ Return Journey: Train# 51422

51421/Pune-Nizamabad Passenger (UnReserved)

Jan 16 2014 (7:29PM)
Change Departure Station:
Change Arrival Station:
Post a Train Travel TipPost a Train Travel Tip **new
Post a Comment/Question/Picture/VideoPost a Comment/Question/Picture/Video
Pantry/Catering
✕ NO Pantry Car
✓ Catering Avbl
Loco/Rake Reversals
DD/Daund Junction (7);
RSA - Rake Sharing
51451-Pune-Daund Shuttle,51433-Nizamabad Pandharpur Passenger,51434-Pandharpur Nizamabad Passenger,51422-Nizamabad Pune Passenger
Rake/Coach Composition
SLR, UR, UR, UR, UR, UR, UR, UR, SLR,
Loco
PUNE WDM/G-3A / WDM-3D
News    PNR    Forum    Time-Table    Availability    Fare Chart    Map    Arr/Dep History    Trips    Gallery    ΣChains    X/O    Timeline    
Travel Time: 0h 53m    2 halts    Distance: 23 km    Avg Speed: 26 km/hr
Type: Passenger
Zone: CR/Central
Departs @ 09:27 (Avg 4h 24m late)
Platform# ???
SMTWTFS
Fakrabad/FKB 
Arrives @ 10:20 (Avg 4h 14m late)
Platform# ???
SMTWTFS
Nizamabad/NZB 

2 halts. 2 intermediate Stations between Fakrabad and Nizamabad

Show ALL intermediate Stations  Show Old Time-Table

#CodeStation NameX/OArrivesAvgDepartsAvgHaltPFDay#KmSpeedElevZoneAddress
1PUNEPune Junction (6)  -14:25+751-751.166556mCRPune 411001, Maharashtra
2GPRWGhorpuri West (2)X  14:27-14:28-1m--1-748.927552mCRPune 411001, Maharashtra
3HDPHadapsar (3)  14:36+1414:37+141m11-745.349554mCRPune 411028, Maharashtra
4MJBKManjari Budruk (2)  14:43+1414:44+141m21-740.348550mCRPune 412307, Maharashtra
5LONILoni (2)  14:51+1414:52+151m21-734.762541mCRPune 412201, Maharashtra
6URIUruli (2)X  15:04+1415:05+141m21-722.358553mCRDist. Pune 412202, Maharashtra
7YTYevat (2)  15:18+1315:19+131m21-709.775550mCRDist. Pune 412214, Maharashtra
8KTTKhutbavX  15:24+1415:25+141m21-703.464558mCRShirur-Daund Rd Daund, Maharashtra
9KDGKedgaon (2)X  15:31+1415:32+151m21-697.051544mCRDist. Pune 412203, Maharashtra
10KDTNKadethan  15:38+1215:39+121m21-691.936532mCRDaund, Maharashtra
11PAAPatas (3)  15:47+1215:48+121m21-687.132532mCRDist. Pune 412219, Maharashtra
12DDDaund Junction (7)X16:10+1016:25+2615m31-675.555521mCRNew Daund Dist. Pune 413801, Maharashtra
13KSTHKashti (2)X  16:39+3216:40+341m11-662.726540mCRDaund, Maharashtra
14SGNDShrigonda Road (2)O  16:59+2617:00+291m11-654.445547mCRAhmadnagar, Maharashtra
15BWDBelwandi (2)X  17:19+2417:20+301m11-640.268592mCRAhmadnagar, Maharashtra
16VPRVisapur (2)  17:32+3117:33+331m11-626.541186mCRAhmadnagar, Maharashtra
17RNJDRanjangaon Road (1)  17:42+3317:43+381m11-620.342656mCRDist. Pune, Maharashtra
18SRLSarola (2)  17:58+3417:59+371m11-609.9430mCRAhmadnagar, Maharashtra
19AKRAkolner (1)  18:07+3718:08+441m11-604.140689mCRAhmadnagar, Maharashtra
20ANGAhmadnagar (2)X  18:27+3718:30+413m11-591.349650mCRAhmednagar 414001, Maharashtra
21NNBNimblak (1)X  18:39+1:2618:40+1:251m11-584.057656mCRAhmednagar, Maharashtra
22VLVilad (1)  18:49+4718:50+571m11-575.549598mCRAhmadnagar, Maharashtra
23VBRVambori (1)  19:04+5319:05+591m11-563.966547mCRAhmadnagar, Maharashtra
24RRIRahuri (2)  19:17+5919:18+1:041m--1-550.762519mCRAhmadnagar, Maharashtra
25TKMYTaklimiya (1)  19:23+1:0619:24+1:061m11-545.568511mCRVambori, Maharashtra
26PDGNPadhegaon (1)  19:32+1:0619:33+1:161m11-536.551512mCRBelapur, Maharashtra
27NPWNipani Vadgaon (2)  19:40+1:0819:41+1:081m--1-530.521531mCRChitali, Maharashtra
28BAPBelapur (2)O  19:59+1:0820:00+1:121m11-524.346541mCRShrirampur, Maharashtra
29CITChitali (1)20:15+1:0820:16+1:091m11-512.859531mCRAhmadnagar, Maharashtra
30PBPuntamba Junction (2)O  20:25+1:0920:26+1:141m11-504.059501mCRPuntamba, Maharashtra
31KNGNKanhegaon (2)  20:35+1:1420:36+1:291m--1-495.151498mCRAhmadnagar, Maharashtra
32SNVRSanvatsarX  20:45+1:0820:46+1:081m--1-487.417521mCRNagpur-Aurngabad-Mumbai Hwy, Maharashtra
33KPGKopargaon (2)X21:14+1:0821:15+1:131m11-479.758508mCRKopargaon Tel: 02423-222268, Maharashtra
34YLYeola (2)X  21:29+1:1221:30+1:301m--1-466.023553mCRYeola, Maharashtra
35MMRManmad Junction (6)  22:45+1:3122:50+2:035m51-437.452580mCRManmad 423104, Maharashtra
36ANKAnkai (3)  23:14+023:15+01m11-422.566620mSCRDist. Nashik, Maharashtra
37NSLNagarsol (2)  23:24+2:4123:25+2:451m--1-412.637589mSCRDist. Nashik, Maharashtra
38TRTarur  23:35+2:4923:36+2:571m--1-406.4131586mSCRTaru, Maharashtra
39RGORotegaon  23:46+3:0123:47+3:041m--1-384.682547mSCRAurangabad, Maharashtra
40PSDParsoda  23:56+3:1123:57+3:131m--1-372.370530mSCRRotegaon, Maharashtra
41KAJGKaranjgaonX  00:01+3:1400:02+3:181m--2-367.651523mSCRLasur, Maharashtra
42LSRLasur (2)  00:14+3:1700:15+3:211m--2-357.579536mSCRAurangabad, Maharashtra
43POZPotul (1)  00:24+3:2300:25+3:251m12-345.762554mSCRLasur, Maharashtra
44DLBDaulatabad  00:34+3:2600:35+3:311m--2-336.450575mSCRDaulatabad, Maharashtra
45AWBAurangabad (5)X  00:50+3:2500:55+3:365m--2-323.943561mSCRAurangabad 431001, Maharashtra
46MKDDMukundwadi Halt (1)X  01:09+3:4101:10+3:411m12-313.9-580mSCRAurangabad, Maharashtra
47CTHChikalthan  01:14+3:4101:15+3:431m--2-299.617582mSCRAurangabad, Maharashtra
48KMVKarmadX  01:29+3:4301:30+3:511m--2-295.766567mSCRAurangabad, Maharashtra
49BDUBadnapur  01:44+3:5401:45+4:021m--2-280.388523mSCRJalna, Maharashtra
50JJalna (3)  01:58+3:5402:00+3:562m--2-261.365502mSCRJalna, Maharashtra
51SVDSarwariX  02:09+4:1102:10+4:141m--2-251.566493mSCRRanjani, Maharashtra
52KODIKodi  02:19+4:1602:20+4:191m--2-241.675473mSCRRanjani, Maharashtra
53RNERanjani  02:29+4:2202:30+4:271m--2-230.342469mSCRJalna, Maharashtra
54PDGParadgaonX  02:39+4:2402:40+4:241m--2-224.148454mSCRUsmanpur, Maharashtra
55PTUPartur (2)X  02:49+4:2402:50+4:281m--2-216.963465mSCRJalna, Maharashtra
56UPRUsmanpur  02:59+4:2903:00+4:291m--2-207.453444mSCRUsmanpur, Maharashtra
57SCOSatuna  03:09+4:3003:10+4:321m--2-199.568440mSCRSatona, Maharashtra
58SELUSelu (2)  03:19+4:3403:20+4:381m--2-189.364436mSCRParbhani, Maharashtra
59DGPPDhengli PimpalgaonX  03:29+4:4003:30+4:411m--2-179.736407mSCRSatuna, Maharashtra
60MVOManwath Road (2)X  03:39+4:4103:40+4:441m--2-174.362421mSCRParbhani, Maharashtra
61DAVDevalgaon Avchar  03:49+4:4503:50+4:471m--2-165.040425mSCRParbhani, Maharashtra
62PGPergaonX  03:59+4:4704:00+4:531m--2-159.026441mSCRParbhani, Maharashtra
63PBNParbhani Junction (3)  04:28+4:3304:30+4:432m12-146.973414mSCRParbhani 431401, Maharashtra
64PIZPingliX  04:39+4:5204:40+4:551m--2-135.936399mSCRParbhani, Maharashtra
65MQLMirkhalX  04:49+4:5404:50+5:051m--2-130.521405mSCRPurna, Maharashtra
66PAUPurna Junction (4)X  05:25+4:4505:30+4:515m--2-118.442384mSCRPurna, Maharashtra
67CRUChudawa (1)X  05:44+4:5205:45+4:581m12-108.664392mSCRHingoli, Maharashtra
68LBGLimbgaon  05:54+5:0005:55+5:071m--2-98.970390mSCRHuzur Sahib Nanded, Maharashtra
69WNGWanegaonX  05:59+4:5006:00+4:501m--2-94.311371mSCRChudawa, Maharashtra
70NEDHazur Sahib Nanded (4)X  06:35+4:4506:40+4:475m22-87.842366mSCRNanded ph.no 09730471954, Maharashtra
71MTDIMaltekdi  06:44+5:4306:45+5:421m--2-85.148362mSCRNanded, Maharashtra
72PARDPathrad  06:54+4:5206:55+4:521m--2-77.922363mSCRHuzur Sahib Nanded, Maharashtra
73MGCMugatX  07:04+4:4907:05+4:501m--2-74.610360mSCRNanded, Maharashtra
74MUEMudkhed Junction (4)X  07:58+4:1408:00+4:152m--2-65.554378mSCRMudkhed, Maharashtra
75SVNSivungaon  08:08+4:1908:09+4:211m--2-58.353395mSCRNanded, Maharashtra
76SLGHShelgaon Halt  08:14+4:1908:15+4:191m--2-53.847378mSCRMudkhed, Maharashtra
77UMRIUmri  08:25+4:1908:26+4:201m--2-46.056381mSCRNanded, Maharashtra
78BLSABolsa  08:35+4:2008:36+4:201m--2-37.650361mSCRDharmabad, Maharashtra
79KEKKarkheli  08:45+4:2108:46+4:251m--2-30.171358mSCRBiloli, Maharashtra
80SQESamrla  08:52+4:2308:53+4:231m--2-23.049360mSCRDharmabad, Maharashtra
81DABDharmabad (2)  09:01+4:2809:02+4:291m--2-16.637354mSCRDegaon, Maharashtra
82BSXBasar (2)  09:18+4:2609:20+4:302m--2-6.767358mSCRDist Adilabad, Andhra Pradesh
83FKB»Fakrabad (1)»  09:26+4:2409:27+4:241m--20.047348mSCRBasara, Andhra Pradesh
84NVTNavipet (2)  09:36+4:2309:37+4:231m--27.070374mSCRNizamabad, Andhra Pradesh
85JKMJankampet Junction (1)  09:45+4:2209:46+4:221m1216.411391mSCRJankampet Junction nizamabad dist., Andhra Pradesh
86NZB•Nizamabad (3)•  10:20+4:14---222.6-384mSCRNizamabad, Andhra Pradesh
Scroll to Top
Scroll to Bottom